Time;durP1;ratioP1;P1;durP2;ratioP2;P2;SDS_P1;SDS_P2;PMS_P1;PMS_P2;Temp;Humidity;BMP_temperature;BMP_pressure;BME280_temperature;BME280_humidity;BME280_pressure;Samples;Min_cycle;Max_cycle;Signal;HPM_P1;HPM_P2
2022/11/03 00:01:37;;;;;;;6.30;4.20;;;9.80;99.90;;;;;;5018998;28;20040;-61
2022/11/03 00:04:23;;;;;;;8.98;5.15;;;9.90;99.90;;;;;;5025166;28;20052;-49
2022/11/03 00:07:09;;;;;;;10.30;4.97;;;9.90;99.90;;;;;;5033675;28;20489;-53
2022/11/03 00:09:54;;;;;;;11.88;4.50;;;9.90;99.90;;;;;;5033538;28;20040;-51
2022/11/03 00:12:40;;;;;;;10.15;4.97;;;9.80;99.90;;;;;;5031531;28;20038;-54
2022/11/03 00:15:26;;;;;;;10.52;4.78;;;9.70;99.90;;;;;;5013275;28;20034;-53
2022/11/03 00:18:12;;;;;;;13.63;4.40;;;9.70;99.90;;;;;;5021096;28;20037;-52
2022/11/03 00:21:03;;;;;;;7.57;4.55;;;9.70;99.90;;;;;;5033063;28;20030;-56
2022/11/03 00:23:49;;;;;;;11.65;5.07;;;9.70;99.90;;;;;;5027327;28;20029;-54
2022/11/03 00:26:36;;;;;;;9.68;5.03;;;9.60;99.90;;;;;;5026322;28;20025;-51
2022/11/03 00:29:23;;;;;;;9.93;5.03;;;9.70;99.90;;;;;;5032605;28;20036;-50
2022/11/03 00:32:09;;;;;;;9.05;4.47;;;9.60;99.90;;;;;;5034372;28;20446;-57
2022/11/03 00:34:55;;;;;;;15.88;5.32;;;9.70;99.90;;;;;;5021605;28;20084;-56
2022/11/03 00:37:41;;;;;;;12.63;5.13;;;9.70;99.90;;;;;;5030052;28;20038;-56
2022/11/03 00:40:27;;;;;;;10.68;5.05;;;9.70;99.90;;;;;;5032627;28;20034;-58
2022/11/03 00:43:13;;;;;;;13.95;5.80;;;9.70;99.90;;;;;;5031997;28;20460;-60
2022/11/03 00:46:00;;;;;;;10.55;5.35;;;9.70;99.90;;;;;;5032622;28;20032;-54
2022/11/03 00:48:47;;;;;;;8.55;4.97;;;9.70;99.90;;;;;;5033067;28;20025;-58
2022/11/03 00:51:36;;;;;;;9.63;5.43;;;9.70;99.90;;;;;;5032720;28;20117;-52
2022/11/03 00:54:22;;;;;;;10.93;4.80;;;9.70;99.90;;;;;;5032135;28;20401;-52
2022/11/03 00:57:08;;;;;;;10.25;5.55;;;9.70;99.90;;;;;;5031580;28;20498;-55
2022/11/03 00:59:53;;;;;;;7.78;4.80;;;9.60;99.90;;;;;;5032583;28;20113;-56
2022/11/03 01:02:39;;;;;;;9.95;4.97;;;9.60;99.90;;;;;;5031901;28;20029;-59
2022/11/03 01:08:34;;;;;;;9.70;4.90;;;9.70;99.90;;;;;;5029273;28;20087;-59
2022/11/03 01:14:45;;;;;;;15.57;5.93;;;9.70;99.90;;;;;;5032060;28;20097;-54
2022/11/03 01:17:31;;;;;;;9.95;5.18;;;9.70;99.90;;;;;;5032179;28;20387;-49
2022/11/03 01:20:17;;;;;;;9.70;4.80;;;9.70;99.90;;;;;;5030907;28;20040;-54
2022/11/03 01:23:03;;;;;;;13.40;5.63;;;9.70;99.90;;;;;;5032087;28;20029;-56
2022/11/03 01:25:49;;;;;;;9.38;5.50;;;9.70;99.90;;;;;;5016781;28;20036;-67
2022/11/03 01:28:41;;;;;;;11.95;5.07;;;9.70;99.90;;;;;;5016697;28;20025;-55
2022/11/03 01:31:27;;;;;;;7.68;5.13;;;9.60;99.90;;;;;;5031140;28;20025;-61
2022/11/03 01:34:18;;;;;;;7.35;4.88;;;9.60;99.90;;;;;;5031612;28;20032;-59
2022/11/03 01:37:04;;;;;;;12.82;5.43;;;9.60;99.90;;;;;;5030975;28;20029;-55
2022/11/03 01:39:50;;;;;;;10.07;5.78;;;9.60;99.90;;;;;;5016256;28;20029;-56
2022/11/03 01:42:36;;;;;;;9.82;5.13;;;9.40;99.90;;;;;;5031095;28;20044;-57
2022/11/03 01:45:22;;;;;;;8.50;5.03;;;9.30;99.90;;;;;;5029810;28;20096;-59
2022/11/03 01:48:10;;;;;;;11.65;5.18;;;9.20;99.90;;;;;;5030611;28;20022;-55
2022/11/03 01:50:56;;;;;;;9.82;5.47;;;9.10;99.90;;;;;;5030158;28;20029;-54
2022/11/03 01:53:46;;;;;;;13.27;5.10;;;9.10;99.90;;;;;;5030074;28;20034;-55
2022/11/03 01:56:35;;;;;;;13.25;4.97;;;9.10;99.90;;;;;;5030663;28;20026;-53
2022/11/03 01:59:24;;;;;;;16.48;5.70;;;8.90;99.90;;;;;;5030693;28;20025;-56
2022/11/03 02:02:10;;;;;;;10.60;5.85;;;8.90;99.90;;;;;;5030443;28;20041;-55
2022/11/03 02:04:58;;;;;;;11.82;5.38;;;8.90;99.90;;;;;;5030006;28;20042;-57
2022/11/03 02:07:54;;;;;;;11.30;5.20;;;8.90;99.90;;;;;;5030455;28;20153;-55
2022/11/03 02:10:41;;;;;;;12.73;5.75;;;8.90;99.90;;;;;;5030594;28;20607;-53
2022/11/03 02:13:27;;;;;;;11.30;5.25;;;8.90;99.90;;;;;;5029972;28;20041;-53
2022/11/03 02:16:13;;;;;;;9.60;6.10;;;8.90;99.90;;;;;;5016573;28;20033;-55
2022/11/03 02:19:02;;;;;;;14.55;6.35;;;8.90;99.90;;;;;;5017423;28;20453;-54
2022/11/03 02:21:58;;;;;;;14.32;5.78;;;8.80;99.90;;;;;;5030185;28;20036;-60
2022/11/03 02:24:54;;;;;;;12.63;5.38;;;8.80;99.90;;;;;;5012715;28;20049;-56
2022/11/03 02:27:40;;;;;;;11.43;6.05;;;8.70;99.90;;;;;;5016070;28;20025;-59
2022/11/03 02:30:37;;;;;;;13.07;5.85;;;8.70;99.90;;;;;;5029745;28;20033;-56
2022/11/03 02:33:29;;;;;;;12.35;6.28;;;8.60;99.90;;;;;;5029572;28;20052;-53
2022/11/03 02:36:23;;;;;;;14.07;5.70;;;8.60;99.90;;;;;;5030045;28;20060;-51
2022/11/03 02:39:40;;;;;;;16.27;5.40;;;8.60;99.90;;;;;;5015719;28;20029;-58
2022/11/03 02:42:26;;;;;;;12.15;6.20;;;8.60;99.90;;;;;;5029093;28;20087;-54
2022/11/03 02:45:17;;;;;;;9.40;5.65;;;8.60;99.90;;;;;;5028389;28;20059;-57
2022/11/03 02:48:04;;;;;;;8.90;5.95;;;8.60;99.90;;;;;;5029491;28;20041;-55
2022/11/03 02:50:50;;;;;;;11.60;6.72;;;8.60;99.90;;;;;;5015523;28;20116;-55
2022/11/03 02:53:44;;;;;;;11.90;6.00;;;8.60;99.90;;;;;;5015667;28;20037;-55
2022/11/03 02:56:35;;;;;;;8.90;5.72;;;8.60;99.90;;;;;;5038552;28;20030;-60
2022/11/03 02:59:29;;;;;;;15.00;6.32;;;8.60;99.90;;;;;;5016100;28;20048;-54
2022/11/03 03:02:22;;;;;;;17.75;7.22;;;8.70;99.90;;;;;;5014521;28;20039;-55
2022/11/03 03:05:10;;;;;;;13.85;7.03;;;8.70;99.90;;;;;;5014679;28;20018;-55
2022/11/03 03:08:04;;;;;;;15.20;6.43;;;8.60;99.90;;;;;;5029178;28;20022;-58
2022/11/03 03:10:52;;;;;;;10.10;5.35;;;8.60;99.90;;;;;;5028725;28;20398;-60
2022/11/03 03:13:42;;;;;;;9.02;5.00;;;8.60;99.90;;;;;;5029430;28;20022;-54
2022/11/03 03:16:31;;;;;;;13.82;6.20;;;8.60;99.90;;;;;;5044878;28;20528;-56
2022/11/03 03:19:41;;;;;;;11.43;5.55;;;8.60;99.90;;;;;;5029509;28;20072;-58
2022/11/03 03:22:57;;;;;;;11.25;6.15;;;8.70;99.90;;;;;;5004106;28;20091;-54
2022/11/03 03:25:58;;;;;;;15.30;6.32;;;8.70;99.90;;;;;;5029307;28;20021;-55
2022/11/03 03:29:14;;;;;;;10.82;6.30;;;8.70;99.90;;;;;;5028666;28;20625;-55
2022/11/03 03:32:05;;;;;;;12.27;5.57;;;8.70;99.90;;;;;;5029317;28;20056;-60
2022/11/03 03:34:53;;;;;;;13.90;5.90;;;8.70;99.90;;;;;;5027915;28;20034;-56
2022/11/03 03:37:44;;;;;;;9.95;5.45;;;8.80;99.90;;;;;;5016062;28;20059;-58
2022/11/03 03:40:42;;;;;;;12.50;5.80;;;8.80;99.90;;;;;;5029031;28;20076;-58
2022/11/03 03:43:30;;;;;;;16.15;5.88;;;8.90;99.90;;;;;;5029154;28;20075;-57
2022/11/03 03:46:18;;;;;;;11.27;4.85;;;8.90;99.90;;;;;;5029251;28;20394;-59
2022/11/03 03:49:05;;;;;;;12.60;6.93;;;9.00;99.90;;;;;;5029629;28;20029;-56
2022/11/03 03:51:51;;;;;;;17.48;5.45;;;9.00;99.90;;;;;;5028856;28;20056;-52
2022/11/03 03:54:37;;;;;;;14.23;5.90;;;9.00;99.90;;;;;;5014825;28;20032;-57
2022/11/03 03:57:26;;;;;;;12.05;5.07;;;9.10;99.90;;;;;;5028955;28;20075;-54
2022/11/03 04:00:14;;;;;;;15.05;5.68;;;9.10;99.90;;;;;;5028858;28;20038;-60
2022/11/03 04:03:00;;;;;;;13.77;5.70;;;9.10;99.90;;;;;;5029094;28;20060;-62
2022/11/03 04:05:46;;;;;;;8.43;5.20;;;9.00;99.90;;;;;;5029112;28;20482;-61
2022/11/03 04:08:32;;;;;;;14.52;5.13;;;9.00;99.90;;;;;;5028995;28;20026;-59
2022/11/03 04:23:37;;;;;;;8.88;4.75;;;9.00;99.90;;;;;;5031845;28;20120;-60
2022/11/03 04:26:23;;;;;;;13.57;5.32;;;8.90;99.90;;;;;;5019054;28;20032;-61
2022/11/03 04:29:10;;;;;;;9.95;5.25;;;9.00;99.90;;;;;;5032450;28;20045;-60
2022/11/03 04:31:56;;;;;;;9.75;5.25;;;8.90;99.90;;;;;;5033147;28;20033;-60
2022/11/03 04:34:45;;;;;;;10.60;5.53;;;8.80;99.90;;;;;;5033108;28;20053;-62
2022/11/03 04:37:31;;;;;;;12.15;5.22;;;8.90;99.90;;;;;;5032080;28;20037;-60
2022/11/03 04:40:17;;;;;;;9.23;5.10;;;8.90;99.90;;;;;;5013335;28;20034;-62
2022/11/03 04:43:10;;;;;;;12.63;5.80;;;8.90;99.90;;;;;;5025655;28;20501;-62
2022/11/03 04:45:56;;;;;;;11.80;5.05;;;8.80;99.90;;;;;;5032445;28;20061;-59
2022/11/03 04:48:43;;;;;;;9.60;5.13;;;8.70;99.90;;;;;;5031348;28;20095;-62
2022/11/03 04:51:31;;;;;;;10.10;5.05;;;8.70;99.90;;;;;;5032240;28;20034;-60
2022/11/03 04:54:21;;;;;;;14.13;5.40;;;8.80;99.90;;;;;;5032247;28;20025;-61
2022/11/03 04:57:15;;;;;;;8.00;5.00;;;8.80;99.90;;;;;;5032139;28;20402;-61
2022/11/03 05:00:01;;;;;;;15.48;5.88;;;8.70;99.90;;;;;;5032212;28;20030;-61
2022/11/03 05:02:49;;;;;;;18.10;9.45;;;8.60;99.90;;;;;;5032285;28;20025;-62
2022/11/03 05:05:35;;;;;;;17.35;8.55;;;8.60;99.90;;;;;;5031796;28;20452;-64
2022/11/03 05:08:22;;;;;;;11.77;5.70;;;8.70;99.90;;;;;;5031314;28;20029;-62
2022/11/03 05:11:18;;;;;;;11.27;5.72;;;8.70;99.90;;;;;;5017346;28;20735;-60
2022/11/03 05:14:21;;;;;;;10.15;5.50;;;8.50;99.90;;;;;;5018698;28;20029;-62
2022/11/03 05:17:22;;;;;;;13.65;7.38;;;8.50;99.90;;;;;;5031947;28;20033;-60
2022/11/03 05:20:29;;;;;;;10.93;5.65;;;8.60;99.90;;;;;;5031690;28;20091;-62
2022/11/03 05:23:16;;;;;;;20.58;6.60;;;8.60;99.90;;;;;;5032318;28;20087;-62
2022/11/03 05:26:04;;;;;;;11.85;5.80;;;8.60;99.90;;;;;;5031836;28;20057;-62
2022/11/03 05:28:58;;;;;;;9.45;5.57;;;8.60;99.90;;;;;;5002840;28;20029;-60
2022/11/03 05:31:47;;;;;;;12.63;5.90;;;8.50;99.90;;;;;;5031892;28;20036;-63
2022/11/03 05:34:44;;;;;;;15.85;6.53;;;8.30;99.90;;;;;;5031683;28;20030;-61
2022/11/03 05:37:32;;;;;;;12.68;6.28;;;8.30;99.90;;;;;;5032195;28;20528;-64
2022/11/03 05:40:24;;;;;;;10.77;6.15;;;8.20;99.90;;;;;;5012503;28;20034;-59
2022/11/03 05:43:13;;;;;;;11.07;6.00;;;8.20;99.90;;;;;;5032054;28;20056;-60
2022/11/03 05:46:01;;;;;;;12.55;5.80;;;8.20;99.90;;;;;;5004712;28;20502;-61
2022/11/03 05:48:48;;;;;;;13.00;5.90;;;8.30;99.90;;;;;;5031276;28;20025;-66
2022/11/03 05:51:38;;;;;;;17.52;8.90;;;8.30;99.90;;;;;;5030223;28;20421;-61
2022/11/03 05:54:30;;;;;;;16.48;7.75;;;8.30;99.90;;;;;;5026463;28;20029;-63
2022/11/03 05:57:17;;;;;;;18.02;7.63;;;8.30;99.90;;;;;;5030772;28;20071;-62
2022/11/03 06:00:06;;;;;;;13.93;6.18;;;8.20;99.90;;;;;;5029935;28;20116;-58
2022/11/03 06:02:52;;;;;;;12.07;5.40;;;8.30;99.90;;;;;;5012891;28;20022;-62
2022/11/03 06:05:40;;;;;;;12.80;5.88;;;8.20;99.90;;;;;;5025960;28;20098;-62
2022/11/03 06:08:32;;;;;;;14.02;5.90;;;8.20;99.90;;;;;;5030201;28;20030;-63
2022/11/03 06:11:35;;;;;;;12.43;6.63;;;8.20;99.90;;;;;;5030818;28;20026;-63
2022/11/03 06:14:23;;;;;;;10.52;5.20;;;8.20;99.90;;;;;;5029791;28;20122;-61
2022/11/03 06:17:18;;;;;;;12.90;5.85;;;8.20;99.90;;;;;;5016096;28;20502;-61
2022/11/03 06:20:15;;;;;;;11.57;5.88;;;8.30;99.90;;;;;;5031497;28;20502;-60
2022/11/03 06:23:01;;;;;;;12.00;5.80;;;8.30;99.90;;;;;;5032238;28;20021;-62
2022/11/03 06:25:49;;;;;;;19.02;7.15;;;8.30;99.90;;;;;;5024571;28;20099;-63
2022/11/03 06:28:37;;;;;;;18.58;6.57;;;8.40;99.90;;;;;;5026322;28;20033;-63
2022/11/03 06:31:27;;;;;;;12.38;5.68;;;8.30;99.90;;;;;;5031054;28;20409;-60
2022/11/03 06:34:38;;;;;;;13.13;7.05;;;8.30;99.90;;;;;;5016850;28;20658;-62
2022/11/03 06:37:32;;;;;;;14.02;6.03;;;8.30;99.90;;;;;;5009167;28;20109;-61
2022/11/03 06:40:24;;;;;;;8.75;5.40;;;8.30;99.90;;;;;;5029327;28;20021;-64
2022/11/03 06:43:19;;;;;;;14.98;6.80;;;8.20;99.90;;;;;;5014804;28;20614;-62
2022/11/03 06:46:13;;;;;;;10.43;5.93;;;8.20;99.90;;;;;;5029752;28;20048;-61
2022/11/03 06:49:03;;;;;;;14.07;5.77;;;8.30;99.90;;;;;;5026139;28;20032;-63
2022/11/03 06:51:51;;;;;;;12.82;5.88;;;8.30;99.90;;;;;;5003565;28;20045;-63
2022/11/03 06:54:39;;;;;;;14.00;6.50;;;8.30;99.90;;;;;;5003634;28;20029;-63
2022/11/03 06:57:25;;;;;;;16.17;6.20;;;8.40;99.90;;;;;;5029739;28;20099;-63
2022/11/03 07:00:21;;;;;;;14.45;6.10;;;8.50;99.90;;;;;;5028483;28;20440;-62
2022/11/03 07:03:31;;;;;;;11.00;5.10;;;8.60;99.90;;;;;;5022631;28;20022;-63
2022/11/03 07:06:27;;;;;;;11.18;6.18;;;8.70;99.90;;;;;;5027178;28;20100;-62
2022/11/03 07:09:27;;;;;;;11.50;6.43;;;8.60;99.90;;;;;;5020856;28;20532;-63
2022/11/03 07:12:15;;;;;;;14.25;6.65;;;8.60;99.90;;;;;;5020308;28;20069;-63
2022/11/03 07:15:05;;;;;;;20.98;6.97;;;8.70;99.90;;;;;;5018838;28;20034;-60
2022/11/03 07:17:51;;;;;;;12.48;6.18;;;8.70;99.90;;;;;;5015024;28;20029;-61
2022/11/03 07:20:38;;;;;;;15.68;7.70;;;8.60;99.90;;;;;;5019020;28;20431;-63
2022/11/03 07:23:29;;;;;;;14.95;7.60;;;8.60;99.90;;;;;;5029083;28;20018;-60
2022/11/03 07:26:15;;;;;;;16.85;6.97;;;8.60;99.90;;;;;;5027082;28;20496;-64
2022/11/03 07:29:01;;;;;;;16.13;6.07;;;8.70;99.90;;;;;;5008642;28;20079;-62
2022/11/03 07:31:50;;;;;;;12.13;6.38;;;8.80;99.90;;;;;;5006693;28;20114;-61
2022/11/03 07:34:36;;;;;;;17.33;7.00;;;8.80;99.90;;;;;;4994051;28;20068;-62
2022/11/03 07:37:24;;;;;;;14.02;6.68;;;8.80;99.90;;;;;;5023865;28;20072;-63
2022/11/03 07:40:17;;;;;;;18.45;7.35;;;8.80;99.90;;;;;;5021457;28;20418;-65
2022/11/03 07:43:33;;;;;;;24.88;7.18;;;8.90;99.90;;;;;;5007266;28;20044;-62
2022/11/03 07:46:21;;;;;;;15.82;6.90;;;8.90;99.90;;;;;;5011600;28;20025;-59
2022/11/03 07:49:18;;;;;;;13.95;6.45;;;9.00;99.90;;;;;;5008009;28;20026;-60
2022/11/03 07:52:10;;;;;;;16.38;6.13;;;9.00;99.90;;;;;;5024916;28;20088;-61
2022/11/03 07:54:58;;;;;;;10.82;7.07;;;9.10;99.90;;;;;;5010301;28;20026;-62
2022/11/03 07:57:44;;;;;;;15.95;6.35;;;9.30;99.90;;;;;;5025407;28;20029;-61
2022/11/03 08:00:31;;;;;;;17.90;7.07;;;9.30;99.90;;;;;;5004292;28;20379;-61
2022/11/03 08:03:45;;;;;;;13.43;5.80;;;9.30;99.90;;;;;;5026437;28;20069;-63
2022/11/03 08:06:31;;;;;;;19.98;5.78;;;9.40;99.90;;;;;;5032386;28;20037;-59
2022/11/03 08:09:18;;;;;;;15.88;7.85;;;9.40;99.90;;;;;;5027167;28;20034;-62
2022/11/03 08:12:04;;;;;;;15.07;6.80;;;9.60;99.90;;;;;;5026706;28;20021;-62
2022/11/03 08:14:50;;;;;;;12.10;6.90;;;9.70;99.90;;;;;;5029729;28;20044;-62
2022/11/03 08:17:36;;;;;;;12.18;6.05;;;9.80;99.90;;;;;;5030981;28;20052;-61
2022/11/03 08:20:22;;;;;;;15.63;6.57;;;9.90;99.90;;;;;;5031180;28;20454;-59
2022/11/03 08:23:10;;;;;;;10.65;5.90;;;10.10;99.90;;;;;;5015370;28;20383;-60
2022/11/03 08:25:56;;;;;;;10.40;6.68;;;10.20;99.90;;;;;;5033661;28;20025;-61
2022/11/03 08:28:42;;;;;;;11.88;5.82;;;10.20;99.90;;;;;;5018966;28;20402;-61
2022/11/03 08:31:35;;;;;;;7.50;5.28;;;10.30;99.90;;;;;;5032624;28;20086;-63
2022/11/03 08:34:23;;;;;;;11.15;6.32;;;10.50;99.90;;;;;;5032729;28;20072;-63
2022/11/03 08:37:15;;;;;;;13.88;6.60;;;10.50;99.90;;;;;;5032557;28;20025;-60
2022/11/03 08:40:01;;;;;;;18.35;7.28;;;10.60;99.90;;;;;;5015708;28;20026;-53
2022/11/03 08:42:48;;;;;;;12.93;5.57;;;10.80;99.90;;;;;;5032390;28;20045;-55
2022/11/03 08:45:34;;;;;;;10.02;5.80;;;10.90;99.90;;;;;;5033417;28;20386;-52
2022/11/03 08:48:26;;;;;;;15.63;6.90;;;11.00;99.90;;;;;;5032416;28;20103;-56
2022/11/03 08:51:13;;;;;;;12.02;5.80;;;11.10;99.90;;;;;;5032400;28;20026;-57
2022/11/03 08:53:59;;;;;;;11.93;5.72;;;11.10;99.90;;;;;;5032355;28;20030;-57
2022/11/03 08:56:45;;;;;;;13.65;5.75;;;11.20;99.90;;;;;;5031788;28;20044;-55
2022/11/03 08:59:31;;;;;;;9.90;5.35;;;11.30;99.90;;;;;;5032264;28;20030;-57
2022/11/03 09:02:17;;;;;;;12.70;6.20;;;11.40;99.90;;;;;;5017321;28;20030;-56
2022/11/03 09:05:04;;;;;;;10.70;5.78;;;11.50;99.90;;;;;;5032674;28;20033;-59
2022/11/03 09:07:50;;;;;;;10.10;5.20;;;11.40;99.90;;;;;;5032905;28;20033;-57
2022/11/03 09:10:36;;;;;;;12.00;5.68;;;11.60;99.90;;;;;;5032516;28;20152;-52
2022/11/03 09:13:22;;;;;;;11.50;5.07;;;11.60;99.90;;;;;;5017599;28;20025;-55
2022/11/03 09:16:08;;;;;;;11.38;4.63;;;11.60;99.90;;;;;;5032337;28;20025;-59
2022/11/03 09:18:54;;;;;;;9.30;4.93;;;11.70;99.90;;;;;;5031699;28;20026;-57
2022/11/03 09:21:40;;;;;;;10.57;4.43;;;11.80;99.90;;;;;;5031834;28;20497;-57
2022/11/03 09:24:26;;;;;;;8.15;4.07;;;11.90;99.90;;;;;;5032914;28;20569;-58
2022/11/03 09:27:12;;;;;;;9.13;4.05;;;12.00;99.90;;;;;;5031948;28;20033;-59
2022/11/03 09:29:58;;;;;;;10.48;4.38;;;12.00;99.90;;;;;;5017962;28;20021;-60
2022/11/03 09:32:45;;;;;;;10.43;4.60;;;12.00;99.90;;;;;;5031823;28;20028;-58
2022/11/03 09:35:31;;;;;;;10.73;4.72;;;12.00;99.90;;;;;;5032084;28;20029;-59
2022/11/03 09:38:17;;;;;;;11.60;5.10;;;12.00;99.90;;;;;;5031876;28;20508;-59
2022/11/03 09:41:04;;;;;;;10.00;4.55;;;12.00;99.90;;;;;;5031444;28;20555;-58
2022/11/03 09:43:50;;;;;;;13.90;5.95;;;11.90;99.90;;;;;;5031157;28;20075;-58
2022/11/03 09:46:37;;;;;;;13.63;5.22;;;11.90;99.90;;;;;;5031245;28;20083;-60
2022/11/03 09:49:23;;;;;;;11.45;5.07;;;11.80;99.90;;;;;;5032265;28;20036;-59
2022/11/03 09:52:14;;;;;;;11.50;4.47;;;12.00;99.80;;;;;;5031654;28;20022;-60
2022/11/03 09:55:00;;;;;;;12.55;4.82;;;12.10;99.60;;;;;;5031329;28;20025;-58
2022/11/03 09:57:46;;;;;;;8.52;4.05;;;12.20;99.60;;;;;;5030491;28;20026;-56
2022/11/03 10:00:33;;;;;;;9.52;3.95;;;12.30;99.40;;;;;;5031146;28;20449;-57
2022/11/03 10:03:19;;;;;;;9.60;3.97;;;12.30;99.10;;;;;;5031023;28;20113;-59
2022/11/03 10:06:06;;;;;;;7.47;3.72;;;12.40;99.00;;;;;;5031073;28;20037;-56
2022/11/03 10:08:52;;;;;;;7.43;4.00;;;12.50;98.80;;;;;;5031337;28;20026;-56
2022/11/03 10:11:38;;;;;;;10.25;5.03;;;12.60;98.70;;;;;;5032059;28;20025;-56
2022/11/03 10:14:24;;;;;;;9.10;4.80;;;12.60;98.60;;;;;;5001264;28;20029;-60
2022/11/03 10:17:16;;;;;;;7.47;3.78;;;12.70;98.60;;;;;;5031738;28;20025;-58
2022/11/03 10:20:05;;;;;;;8.38;4.40;;;12.60;98.30;;;;;;5028563;28;20029;-60
2022/11/03 10:22:53;;;;;;;9.88;4.20;;;12.60;98.30;;;;;;5011664;28;20037;-53
2022/11/03 10:25:43;;;;;;;13.38;4.97;;;12.60;98.50;;;;;;5009947;28;20026;-57
2022/11/03 10:28:31;;;;;;;9.05;3.72;;;12.70;98.50;;;;;;5013015;28;20075;-57
2022/11/03 10:31:22;;;;;;;8.77;4.30;;;12.80;98.70;;;;;;5030364;28;20030;-53
2022/11/03 10:34:38;;;;;;;10.27;4.80;;;12.80;98.60;;;;;;5029997;28;20310;-57
2022/11/03 10:37:25;;;;;;;15.02;5.05;;;13.00;98.60;;;;;;5030340;28;20041;-61
2022/11/03 10:40:35;;;;;;;11.40;4.45;;;13.00;98.50;;;;;;5015195;28;20034;-57
2022/11/03 10:43:21;;;;;;;11.88;5.20;;;13.00;98.60;;;;;;5029454;28;20103;-56
2022/11/03 10:46:12;;;;;;;8.52;4.70;;;13.10;98.60;;;;;;5030526;28;20057;-57
2022/11/03 10:49:14;;;;;;;9.25;4.35;;;13.30;98.50;;;;;;5010475;28;20112;-60
2022/11/03 10:52:26;;;;;;;9.35;4.55;;;13.40;98.40;;;;;;5015745;28;20525;-56
2022/11/03 10:55:12;;;;;;;8.07;4.10;;;13.60;98.10;;;;;;5030049;28;20486;-59
2022/11/03 10:57:58;;;;;;;6.25;3.92;;;13.70;97.70;;;;;;5016006;28;20128;-55
2022/11/03 11:00:44;;;;;;;8.05;4.53;;;13.80;97.40;;;;;;5015652;28;20061;-55
2022/11/03 11:03:32;;;;;;;10.43;4.78;;;14.00;97.00;;;;;;5015615;28;20025;-56
2022/11/03 11:06:24;;;;;;;8.65;4.20;;;13.90;96.80;;;;;;5029880;28;20121;-55
2022/11/03 11:09:25;;;;;;;10.77;4.03;;;14.10;96.70;;;;;;5011014;28;20318;-57
2022/11/03 11:12:21;;;;;;;11.68;4.47;;;14.20;96.60;;;;;;4999594;28;20057;-59
2022/11/03 11:15:35;;;;;;;10.82;4.28;;;14.10;96.30;;;;;;5029548;28;20038;-55
2022/11/03 11:18:44;;;;;;;18.95;5.50;;;14.20;95.90;;;;;;5029423;28;20390;-55
2022/11/03 11:21:39;;;;;;;7.03;3.72;;;14.20;95.60;;;;;;5027385;28;20393;-58
2022/11/03 11:24:44;;;;;;;8.18;4.10;;;14.00;95.60;;;;;;5025742;28;20486;-53
2022/11/03 11:27:38;;;;;;;11.90;5.20;;;14.20;95.60;;;;;;5027667;28;20478;-57
2022/11/03 11:30:36;;;;;;;7.10;4.43;;;14.30;95.40;;;;;;5027409;28;20094;-56
2022/11/03 11:33:23;;;;;;;10.15;4.10;;;14.30;95.40;;;;;;5028957;28;20041;-57
2022/11/03 11:36:20;;;;;;;13.02;4.47;;;14.30;95.50;;;;;;5010962;28;20405;-55
2022/11/03 11:39:25;;;;;;;10.60;4.95;;;14.40;95.20;;;;;;5025282;28;20025;-55
2022/11/03 11:42:18;;;;;;;8.65;4.03;;;14.50;95.00;;;;;;5031022;28;20030;-62
2022/11/03 11:45:05;;;;;;;10.50;4.75;;;14.60;94.90;;;;;;5031654;28;20021;-60
2022/11/03 11:47:51;;;;;;;10.43;4.40;;;14.60;94.90;;;;;;5029338;28;20025;-62
2022/11/03 11:50:37;;;;;;;10.27;4.03;;;14.50;95.10;;;;;;5014955;28;20034;-61
2022/11/03 11:53:24;;;;;;;8.07;4.07;;;14.50;94.70;;;;;;5030175;28;20057;-63
2022/11/03 11:56:17;;;;;;;10.05;4.13;;;14.50;94.80;;;;;;5029507;28;20485;-62
2022/11/03 11:59:03;;;;;;;9.48;4.00;;;14.50;94.80;;;;;;5029371;28;20034;-61
2022/11/03 12:01:52;;;;;;;6.35;3.78;;;14.60;94.50;;;;;;5033401;28;20036;-62
2022/11/03 12:04:38;;;;;;;7.43;4.65;;;14.60;94.60;;;;;;5032091;28;20394;-61
2022/11/03 12:07:34;;;;;;;12.57;5.53;;;14.60;94.60;;;;;;5030345;28;20026;-62
2022/11/03 12:10:26;;;;;;;6.43;4.15;;;14.70;94.50;;;;;;5010019;28;20030;-61
2022/11/03 12:13:46;;;;;;;13.00;5.03;;;14.80;94.50;;;;;;5016007;28;20100;-62
2022/11/03 12:16:35;;;;;;;7.97;4.35;;;14.80;94.60;;;;;;5030093;28;20045;-60
2022/11/03 12:19:51;;;;;;;29.48;18.50;;;15.00;94.70;;;;;;5028432;28;20022;-62
2022/11/03 12:22:39;;;;;;;18.63;7.97;;;15.10;94.20;;;;;;5028574;28;20025;-65
2022/11/03 12:25:35;;;;;;;9.57;3.70;;;15.20;94.20;;;;;;5013845;28;20038;-62
2022/11/03 12:28:31;;;;;;;;;;;15.20;94.10;;;;;;5030118;28;20530;-60
2022/11/03 12:31:17;;;;;;;8.50;4.25;;;15.20;94.20;;;;;;5009010;28;19951;-61
2022/11/03 12:34:03;;;;;;;7.80;4.18;;;15.30;94.30;;;;;;5028641;28;20112;-59
2022/11/03 12:36:49;;;;;;;11.18;4.35;;;15.30;94.20;;;;;;5029190;28;20030;-62
2022/11/03 12:39:35;;;;;;;9.68;3.90;;;15.40;94.30;;;;;;5031486;28;20546;-61
2022/11/03 12:42:23;;;;;;;7.43;3.50;;;15.40;93.90;;;;;;5031170;28;20110;-59
2022/11/03 12:45:09;;;;;;;10.45;4.32;;;15.30;94.10;;;;;;5017421;28;20668;-62
2022/11/03 12:47:55;;;;;;;11.43;4.50;;;15.20;94.10;;;;;;5031911;28;20033;-63
2022/11/03 12:50:41;;;;;;;10.95;4.38;;;15.10;93.90;;;;;;4999458;28;20030;-59
2022/11/03 12:53:27;;;;;;;13.90;4.20;;;15.00;93.70;;;;;;5011956;28;20048;-60
2022/11/03 12:56:14;;;;;;;11.90;4.28;;;15.00;94.00;;;;;;5029480;28;20029;-60
2022/11/03 12:59:00;;;;;;;8.63;3.97;;;14.80;93.90;;;;;;5016728;28;20494;-63
2022/11/03 13:01:46;;;;;;;6.88;4.00;;;14.90;93.90;;;;;;5013507;28;20453;-61
2022/11/03 13:04:32;;;;;;;7.25;4.00;;;14.90;93.70;;;;;;5018982;28;20045;-60
2022/11/03 13:07:18;;;;;;;8.35;3.97;;;14.90;93.80;;;;;;5017422;28;20079;-60
2022/11/03 13:10:04;;;;;;;11.18;4.68;;;14.80;93.80;;;;;;5031719;28;20406;-61
2022/11/03 13:12:50;;;;;;;6.53;4.00;;;14.80;94.00;;;;;;5035254;28;20025;-61
2022/11/03 13:15:36;;;;;;;9.80;3.78;;;14.80;94.10;;;;;;5053558;28;20104;-60
2022/11/03 13:18:22;;;;;;;6.25;3.72;;;14.80;94.30;;;;;;5051474;28;20409;-57
2022/11/03 13:21:08;;;;;;;20.50;13.45;;;14.80;94.40;;;;;;5050174;28;20535;-59
2022/11/03 13:23:55;;;;;;;38.50;15.90;;;14.80;94.40;;;;;;5034224;28;20276;-59
2022/11/03 13:26:41;;;;;;;7.88;4.90;;;14.80;94.40;;;;;;5031273;28;20087;-62
2022/11/03 13:29:27;;;;;;;11.15;4.93;;;14.70;94.30;;;;;;5032441;28;20022;-61
2022/11/03 13:32:12;;;;;;;8.50;4.30;;;14.70;94.30;;;;;;5027296;28;20026;-61
2022/11/03 13:34:59;;;;;;;12.80;4.60;;;14.60;94.00;;;;;;5031362;28;20445;-59
2022/11/03 13:37:48;;;;;;;11.73;4.28;;;14.50;93.90;;;;;;5030495;28;20124;-56
2022/11/03 13:40:35;;;;;;;9.77;3.92;;;14.50;93.80;;;;;;5017241;28;20026;-62
2022/11/03 13:43:21;;;;;;;12.10;4.03;;;14.50;93.80;;;;;;5030789;28;20105;-63
2022/11/03 13:46:06;;;;;;;10.18;4.45;;;14.60;93.80;;;;;;5017070;28;20613;-61
2022/11/03 13:48:52;;;;;;;12.73;4.68;;;14.80;93.70;;;;;;5015491;28;20026;-62
2022/11/03 13:51:38;;;;;;;12.85;4.78;;;14.80;93.80;;;;;;5017628;28;20041;-61
2022/11/03 13:54:24;;;;;;;13.02;5.13;;;14.80;94.40;;;;;;4997146;28;20085;-60
2022/11/03 13:57:10;;;;;;;8.98;4.72;;;14.70;94.50;;;;;;5009789;28;20383;-61
2022/11/03 13:59:57;;;;;;;5.93;3.78;;;14.60;94.70;;;;;;5027972;28;20029;-68
2022/11/03 14:02:43;;;;;;;7.15;4.43;;;14.60;94.90;;;;;;5029617;28;20433;-60
2022/11/03 14:05:29;;;;;;;9.48;4.75;;;14.50;95.00;;;;;;5010827;28;20069;-64
2022/11/03 14:08:16;;;;;;;9.88;4.18;;;14.60;95.00;;;;;;5009338;28;20072;-68
2022/11/03 14:12:29;;;;;;;9.15;4.40;;;14.50;95.10;;;;;;5015899;28;20029;-64
2022/11/03 14:14:10;;;;;;;21.75;5.43;;;14.60;95.20;;;;;;5002260;28;20064;-66
2022/11/03 14:16:56;;;;;;;12.52;4.70;;;14.70;95.20;;;;;;5013891;28;20022;-69
2022/11/03 14:19:44;;;;;;;11.82;4.18;;;14.80;95.20;;;;;;5030584;28;20042;-64
2022/11/03 14:22:31;;;;;;;10.15;4.22;;;15.20;94.90;;;;;;4997135;28;20557;-68
2022/11/03 14:25:19;;;;;;;10.63;4.68;;;15.50;94.50;;;;;;5010693;28;20504;-62
2022/11/03 14:28:04;;;;;;;8.95;3.70;;;15.80;94.20;;;;;;5028385;28;20033;-60
2022/11/03 14:30:50;;;;;;;8.80;3.80;;;16.10;93.80;;;;;;5017033;28;20061;-61
2022/11/03 14:33:36;;;;;;;8.18;4.32;;;16.00;93.50;;;;;;5012751;28;20121;-60
2022/11/03 14:36:22;;;;;;;11.32;4.13;;;15.80;93.90;;;;;;5029615;28;20029;-59
2022/11/03 14:39:08;;;;;;;11.40;4.82;;;15.60;93.90;;;;;;5031662;28;20060;-61
2022/11/03 14:42:03;;;;;;;11.23;4.43;;;15.30;94.20;;;;;;5004162;28;20514;-60
2022/11/03 14:44:49;;;;;;;10.68;4.50;;;15.10;94.50;;;;;;5016784;28;20113;-59
2022/11/03 14:47:35;;;;;;;9.50;4.38;;;15.00;94.80;;;;;;5001776;28;20038;-59
2022/11/03 14:50:21;;;;;;;10.95;4.43;;;14.90;94.90;;;;;;5031827;28;20041;-58
2022/11/03 14:53:07;;;;;;;14.50;5.30;;;14.70;95.10;;;;;;5029579;28;20032;-61
2022/11/03 14:55:53;;;;;;;12.75;5.13;;;14.70;95.40;;;;;;5030812;28;20025;-61
2022/11/03 14:58:39;;;;;;;8.63;4.60;;;14.50;95.60;;;;;;5030083;28;20022;-53
2022/11/03 15:01:25;;;;;;;8.80;4.43;;;14.40;95.90;;;;;;5028139;28;20033;-58